Hassi RMel Airport


Codes: DAFH/HRM
Name: Hassi RMel Airport
City:
Country: Algeria
Elevation: 2540 ft.
Wikipedia:

Photos at Hassi RMel Airport


   Photos courtesy of SpottingLog. You can add your own sightings and photos by signing up for a free trial today.



No photos found.

Weather at Hassi RMel Airport


Time (UTC)DescriptionTempratureWindCloud coverageVisibilityPressureHumidity
16-Jun-2024 09:00Few Clouds31°C13 mph, SE16%10000m1016hPa23%
16-Jun-2024 12:00Few Clouds33°C13 mph, SE13%10000m1015hPa20%
16-Jun-2024 15:00Scattered Clouds36°C13 mph, SW34%10000m1011hPa14%
16-Jun-2024 18:00Broken Clouds33°C27 mph, SW61%10000m1010hPa20%
16-Jun-2024 21:00Overcast Clouds30°C9 mph, SE100%10000m1013hPa25%
17-Jun-2024 00:00Overcast Clouds30°C7 mph, N100%10000m1013hPa26%
17-Jun-2024 03:00Broken Clouds28°C4 mph, E59%10000m1013hPa28%
17-Jun-2024 06:00Scattered Clouds29°C11 mph, SE49%10000m1013hPa25%
17-Jun-2024 09:00Few Clouds35°C18 mph, SE11%10000m1014hPa12%
17-Jun-2024 12:00Scattered Clouds39°C16 mph, S25%10000m1013hPa10%
17-Jun-2024 15:00Overcast Clouds40°C13 mph, SW88%10000m1011hPa10%
17-Jun-2024 18:00Broken Clouds35°C7 mph, SE84%10000m1011hPa15%
17-Jun-2024 21:00Broken Clouds31°C11 mph, E84%10000m1014hPa25%
18-Jun-2024 00:00Light Rain32°C13 mph, E87%10000m1013hPa19%
18-Jun-2024 03:00Overcast Clouds30°C9 mph, SE98%10000m1014hPa20%
18-Jun-2024 06:00Broken Clouds30°C11 mph, SE84%10000m1015hPa20%
18-Jun-2024 09:00Few Clouds37°C16 mph, SE12%10000m1015hPa12%
18-Jun-2024 12:00Clear Sky40°C20 mph, SE7%10000m1014hPa10%
18-Jun-2024 15:00Clear Sky41°C18 mph, SE5%10000m1012hPa8%
18-Jun-2024 18:00Scattered Clouds40°C18 mph, SE39%10000m1011hPa9%
18-Jun-2024 21:00Clear Sky35°C16 mph, SE1%10000m1013hPa12%
19-Jun-2024 00:00Clear Sky33°C16 mph, SE8%10000m1013hPa14%
19-Jun-2024 03:00Broken Clouds31°C18 mph, SE77%10000m1013hPa16%
19-Jun-2024 06:00Broken Clouds31°C18 mph, SE60%10000m1014hPa14%
19-Jun-2024 09:00Overcast Clouds36°C22 mph, SE100%10000m1014hPa9%
19-Jun-2024 12:00Broken Clouds41°C25 mph, SE77%10000m1013hPa7%
19-Jun-2024 15:00Clear Sky41°C22 mph, SE4%10000m1011hPa7%
19-Jun-2024 18:00Clear Sky39°C20 mph, SE3%10000m1011hPa8%
19-Jun-2024 21:00Clear Sky35°C18 mph, SE1%10000m1014hPa12%
20-Jun-2024 00:00Clear Sky32°C18 mph, SE1%10000m1014hPa14%
20-Jun-2024 03:00Broken Clouds30°C13 mph, SE68%10000m1014hPa17%
20-Jun-2024 06:00Scattered Clouds30°C18 mph, SE38%10000m1015hPa16%
20-Jun-2024 09:00Clear Sky35°C20 mph, SE2%10000m1015hPa12%
20-Jun-2024 12:00Clear Sky38°C20 mph, SE4%10000m1014hPa8%
20-Jun-2024 15:00Clear Sky39°C20 mph, SE9%10000m1012hPa7%
20-Jun-2024 18:00Broken Clouds37°C18 mph, SE54%10000m1012hPa8%
20-Jun-2024 21:00Clear Sky32°C13 mph, SE0%10000m1014hPa11%
21-Jun-2024 00:00Clear Sky30°C9 mph, SE0%10000m1015hPa14%
21-Jun-2024 03:00Clear Sky28°C11 mph, E0%10000m1014hPa16%
21-Jun-2024 06:00Clear Sky28°C9 mph, E0%10000m1015hPa16%